• Join FlightAware (Why Join?)
  • Login
  • US Flag 
07:49AM EDT


 

Airport Tracker/Info


-or-


 

Live Flight TrackerFlight Track Log ✈ EGF3202 ✈ 29-Apr-2013 ✈ KCHS - KDFW

Flight Track Log - Related Links

Times and Time Zones

All times are in EDT time to prevent confusion due to time zone crossing. See the EGF3202 flight status page for this flight to view local times or setup timezone preferences in your user account.

Time Position Orientation Groundspeed Altitude Reporting Facility
EDT Latitude Longitude Course Direction KTS MPH feet Rate Location/Type
06:41PM 32.8647 -80.1153 276° West 206 237 3,200  Level Jacksonville Center
06:42PM 32.8725 -80.1942 277° West 253 291 5,100 2,220 Climbing Jacksonville Center
06:43PM 32.9333 -80.3444 270° West  Level FlightAware Approximate
06:43PM 32.8889 -80.2753 284° West 263 303 7,700  Level Jacksonville Center
06:44PM 32.9333 -80.4640 270° West  Level FlightAware Approximate
06:44PM 32.9072 -80.3589 285° West 263 303 10,200  Level Jacksonville Center
06:45PM 32.9394 -80.5831 276° West  Level FlightAware Approximate
06:45PM 32.9281 -80.4572 284° West 263 303 11,800  Level Jacksonville Center
06:46PM 32.9505 -80.7054 276° West  Level FlightAware Approximate
06:46PM 32.9489 -80.5608 284° West 292 336 12,000  Level Jacksonville Center
06:47PM 32.9616 -80.8277 276° West  Level FlightAware Approximate
06:47PM 32.9986 -80.6633 300° West 327 376 13,500  Level Jacksonville Center
06:48PM 33.0483 -80.7614 301° West 344 396 15,000 1,500 Climbing Jacksonville Center
06:49PM 33.0981 -80.8667 299° West 352 405 16,500 1,440 Climbing Jacksonville Center
06:50PM 33.1456 -80.9700 299° West 352 405 17,900 1,440 Climbing Jacksonville Center
06:51PM 33.1972 -81.0731 301° West 352 405 19,400 1,380 Climbing Jacksonville Center
06:52PM 33.2444 -81.1764 299° West 352 405 20,700 1,200 Climbing Jacksonville Center
06:53PM 33.2961 -81.2822 300° West 352 405 21,900 1,200 Climbing Jacksonville Center
06:54PM 33.3431 -81.3808 300° West 362 417 23,100 1,200 Climbing Jacksonville Center
06:55PM 33.3944 -81.4869 300° West 367 422 24,300 1,140 Climbing Jacksonville Center
06:57PM 33.4772 -81.6703 298° West 385 443 26,200 1,080 Climbing Atlanta Center
06:58PM 33.5272 -81.7786 299° West 385 443 27,300 1,200 Climbing Atlanta Center
06:59PM 33.5792 -81.8844 301° West 378 435 28,700 1,620 Climbing Atlanta Center
07:00PM 33.6125 -82.0033 289° West 355 409 30,600 1,560 Climbing Atlanta Center
07:01PM 33.6142 -82.1156 271° West 342 394 31,900 660 Climbing Atlanta Center
07:02PM 33.6161 -82.2328 271° West 342 394 32,000  Climbing Atlanta Center
07:03PM 33.6242 -82.3622 274° West 372 428 32,000 240 Level Atlanta Center
07:04PM 33.6303 -82.5019 273° West 404 465 32,500 780 Climbing Atlanta Center
07:05PM 33.6275 -82.6342 269° West 404 465 33,600 1,200 Climbing Atlanta Center
07:06PM 33.6331 -82.7664 273° West 399 459 34,900 1,200 Climbing Atlanta Center
07:07PM 33.6364 -82.8936 272° West 394 453 36,000 540 Climbing Atlanta Center
07:08PM 33.6419 -83.0208 273° West 384 442 36,000  Level Atlanta Center
07:09PM 33.6428 -83.1506 270° West 389 448 36,000  Level Atlanta Center
07:10PM 33.6458 -83.2828 272° West 389 448 36,000  Level Atlanta Center
07:11PM 33.6486 -83.4100 272° West 389 448 36,000  Level Atlanta Center
07:12PM 33.6514 -83.5297 272° West 389 448 36,000  Level Atlanta Center
07:13PM 33.6539 -83.6569 271° West 389 448 36,000  Level Atlanta Center
07:14PM 33.6561 -83.7892 271° West 389 448 36,000  Level Atlanta Center
07:15PM 33.6564 -83.9214 270° West 400 460 36,000  Level Atlanta Center
07:16PM 33.6606 -84.0564 272° West 407 468 36,000  Level Atlanta Center
07:17PM 33.6586 -84.1886 269° West 402 463 36,000  Level Atlanta Center
07:18PM 33.6583 -84.3233 270° West 402 463 36,000  Level Atlanta Center
07:19PM 33.6619 -84.4731 272° West 408 470 36,000  Level Atlanta Center
07:20PM 33.6678 -84.5953 273° West 408 470 36,000  Level Atlanta Center
07:21PM 33.6692 -84.7303 271° West 416 479 36,000  Level Atlanta Center
07:22PM 33.6683 -84.8875 270° West 424 488 36,000  Level Atlanta Center
07:23PM 33.6714 -85.0122 272° West 424 488 36,000  Level Atlanta Center
07:24PM 33.6703 -85.1494 269° West 419 482 36,000  Level Atlanta Center
07:25PM 33.6731 -85.2894 271° West 424 488 36,000  Level Atlanta Center
07:26PM 33.6736 -85.4267 270° West 419 482 36,000  Level Atlanta Center
07:27PM 33.6742 -85.5639 270° West 419 482 36,000  Level Atlanta Center
07:28PM 33.6722 -85.7161 269° West 419 482 36,000  Level Atlanta Center
07:29PM 33.6681 -85.8533 268° West 419 482 36,000  Level Atlanta Center
07:30PM 33.6619 -85.9931 267° West 414 476 36,000  Level Atlanta Center
07:31PM 33.6575 -86.1328 268° West 424 488 36,000  Level Atlanta Center
07:32PM 33.6508 -86.2772 267° West 424 488 36,000  Level Atlanta Center
07:33PM 33.6461 -86.4219 268° West 430 495 36,000  Level Atlanta Center
07:34PM 33.6431 -86.5639 269° West 430 495 36,000  Level Atlanta Center
07:35PM 33.6358 -86.7086 267° West 435 501 36,000  Level Atlanta Center
07:36PM 33.6328 -86.8531 269° West 441 507 36,000  Level Atlanta Center
07:37PM 33.6272 -86.9978 267° West 441 507 36,000  Level Atlanta Center
07:38PM 33.6236 -87.1447 268° West 441 507 36,000  Level Atlanta Center
07:40PM 33.6106 -87.4439 267° West 438 504 36,000  Level Memphis Center
07:41PM 33.6033 -87.5864 267° West 438 504 36,000  Level Memphis Center
07:42PM 33.5978 -87.7236 267° West 433 498 36,000 -240 Level Memphis Center
07:43PM 33.5903 -87.8611 266° West 421 484 35,600 -720 Descending Memphis Center
07:44PM 33.5847 -88.0008 267° West 421 484 34,600 -1,500 Descending Memphis Center
07:45PM 33.5769 -88.1481 266° West 427 491 32,700 -1,320 Descending Memphis Center
07:46PM 33.5711 -88.2878 267° West 434 499 32,000 -360 Descending Memphis Center
07:47PM 33.5650 -88.4325 267° West 434 499 32,000  Level Memphis Center
07:48PM 33.5589 -88.5747 267° West 434 499 32,000  Level Memphis Center
07:49PM 33.5503 -88.7172 266° West 439 505 32,000  Level Memphis Center
07:50PM 33.5458 -88.8667 268° West 446 513 32,000  Level Memphis Center
07:51PM 33.5392 -89.0139 267° West 446 513 32,000  Level Memphis Center
07:52PM 33.5283 -89.1586 265° West 440 506 32,000  Level Memphis Center
07:53PM 33.5231 -89.2908 267° West 450 518 32,000  Level Memphis Center
07:54PM 33.5139 -89.4378 266° West 450 518 32,000  Level Memphis Center
07:55PM 33.5067 -89.5825 267° West 444 511 32,000  Level Memphis Center
07:56PM 33.4992 -89.7319 267° West 444 511 32,000  Level Memphis Center
07:57PM 33.4892 -89.8764 265° West 444 511 32,000  Level Memphis Center
07:58PM 33.4814 -90.0236 266° West 444 511 32,000  Level Memphis Center
07:59PM 33.4567 -90.1681 258° West 444 511 32,000  Level Memphis Center
08:00PM 33.4150 -90.3075 250° West 439 505 32,000  Level Memphis Center
08:01PM 33.3669 -90.4592 249° West 444 511 32,000  Level Memphis Center
08:02PM 33.3272 -90.5983 251° West 449 517 32,000  Level Memphis Center
08:03PM 33.2850 -90.7375 250° West 449 517 32,000  Level Memphis Center
08:04PM 33.2450 -90.8739 251° West 449 517 32,000  Level Memphis Center
08:05PM 33.2047 -91.0078 250° West 444 511 32,000  Level Memphis Center
08:06PM 33.1664 -91.1439 251° West 444 511 32,000  Level Memphis Center
08:08PM 33.0772 -91.4319 250° West 443 510 32,000  Level Fort Worth Center
08:09PM 33.0378 -91.5683 251° West 437 503 32,000  Level Fort Worth Center
08:10PM 32.9981 -91.7019 251° West 437 503 32,000  Level Fort Worth Center
08:11PM 32.9578 -91.8308 250° West 431 496 32,000  Level Fort Worth Center
08:12PM 32.9197 -91.9619 251° West 425 489 32,000  Level Fort Worth Center
08:13PM 32.8775 -92.0931 249° West 425 489 32,000  Level Fort Worth Center
08:14PM 32.8369 -92.2242 250° West 425 489 32,000  Level Fort Worth Center
08:15PM 32.7964 -92.3550 250° West 425 489 32,000  Level Fort Worth Center
08:16PM 32.7578 -92.4831 250° West 425 489 32,000  Level Fort Worth Center
08:17PM 32.7167 -92.6111 249° West 419 482 32,000  Level Fort Worth Center
08:18PM 32.6756 -92.7392 249° West 419 482 32,000  Level Fort Worth Center
08:19PM 32.6364 -92.8669 250° West 419 482 32,000  Level Fort Worth Center
08:20PM 32.6119 -93.0014 258° West 419 482 32,000  Level Fort Worth Center
08:21PM 32.5939 -93.1378 261° West 419 482 32,000  Level Fort Worth Center
08:22PM 32.5775 -93.2792 262° West 419 482 32,000  Level Fort Worth Center
08:23PM 32.5611 -93.4131 262° West 424 488 32,000  Level Fort Worth Center
08:24PM 32.5461 -93.5344 262° West 424 488 32,000  Level Fort Worth Center
08:25PM 32.5294 -93.6756 262° West 430 495 32,000  Level Fort Worth Center
08:26PM 32.5083 -93.8094 259° West 430 495 32,000  Level Fort Worth Center
08:27PM 32.4914 -93.9506 262° West 425 489 32,000  Level Fort Worth Center
08:28PM 32.4744 -94.0892 262° West 430 495 32,000  Level Fort Worth Center
08:29PM 32.4569 -94.2250 261° West 430 495 32,000  Level Fort Worth Center
08:30PM 32.4375 -94.3636 261° West 430 495 32,000  Level Fort Worth Center
08:31PM 32.4217 -94.4969 262° West 430 495 32,000  Level Fort Worth Center
08:32PM 32.4019 -94.6403 261° West 430 495 32,000  Level Fort Worth Center
08:33PM 32.3819 -94.7739 260° West 430 495 32,000  Level Fort Worth Center
08:34PM 32.3639 -94.9144 261° West 430 495 32,000  Level Fort Worth Center
08:35PM 32.3500 -95.0575 263° West 435 501 32,000  Level Fort Worth Center
08:36PM 32.3336 -95.1931 262° West 441 507 32,000  Level Fort Worth Center
08:37PM 32.3172 -95.3336 262° West 436 502 32,000 -1,020 Level Fort Worth Center
08:38PM 32.3236 -95.4736 273° West 426 490 30,000 -2,160 Descending Fort Worth Center
08:39PM 32.3361 -95.6136 276° West 421 484 27,700 -2,160 Descending Fort Worth Center
08:40PM 32.3425 -95.7608 273° West 432 497 25,700 -2,160 Descending Fort Worth Center
08:41PM 32.3525 -95.9083 275° West 447 514 23,400 -2,340 Descending Fort Worth Center
08:42PM 32.3583 -96.0558 273° West 452 520 21,100 -2,400 Descending Fort Worth Center
08:43PM 32.3683 -96.2106 274° West 445 512 18,600 -2,160 Descending Fort Worth Center
08:44PM 32.3758 -96.3336 274° West 419 482 16,800 -1,980 Descending Fort Worth Center
08:45PM 32.4019 -96.4711 283° West 407 468 14,700 -2,040 Descending Fort Worth Center
08:46PM 32.4694 -96.5564 313° West 392 451 12,800 -1,800 Descending Fort Worth Center
08:47PM 32.5514 -96.6542 315° West 387 445 11,100 -900 Descending Fort Worth Center
08:48PM 32.6186 -96.7350 315° West 382 440 11,000 -60 Descending Fort Worth Center
08:49PM 32.6983 -96.8308 315° West 376 433 11,000  Level Fort Worth Center
08:50PM 32.7500 -96.8833 319° Northwest 280 322 11,000 -240 Level Dallas / Fort Worth TRACON
08:51PM 32.8333 -96.9000 350° North 261 300 10,600 -720 Descending Dallas / Fort Worth TRACON
08:52PM 32.9000 -96.9000 360° North 256 295 9,600 -1,200 Descending Dallas / Fort Worth TRACON
08:53PM 32.9667 -96.9000 360° North 246 283 8,200 -1,500 Descending Dallas / Fort Worth TRACON
08:54PM 33.0333 -96.9000 360° North 248 285 6,600 -1,560 Descending Dallas / Fort Worth TRACON
08:55PM 33.1000 -96.9167 348° North 256 295 5,100 -1,440 Descending Dallas / Fort Worth TRACON
08:56PM 33.1000 -97.0000 270° West 234 269 3,900 -1,380 Descending Dallas / Fort Worth TRACON